createdAt,value
2018-03-02T00:00:29.617Z,30.56
2018-03-02T00:02:57.232Z,30.76
2018-03-02T00:05:24.619Z,30.56
2018-03-02T00:07:52.014Z,31.08
2018-03-02T00:10:20.452Z,31.14
2018-03-02T00:12:47.971Z,30.93
2018-03-02T00:15:15.368Z,30.94
2018-03-02T00:17:42.853Z,31.08
2018-03-02T00:20:10.334Z,31.41
2018-03-02T00:22:37.771Z,31.92
2018-03-02T00:25:05.641Z,31.52
2018-03-02T00:27:33.117Z,31.28
2018-03-02T00:30:00.644Z,31.54
2018-03-02T00:32:28.035Z,31.53
2018-03-02T00:34:55.419Z,31.92
2018-03-02T00:37:22.801Z,31.57
2018-03-02T00:39:50.189Z,31.73
2018-03-02T00:42:17.589Z,31.59
2018-03-02T00:44:44.986Z,31.99
2018-03-02T00:47:12.377Z,31.78
2018-03-02T00:49:40.316Z,31.77
2018-03-02T00:52:07.748Z,31.69
2018-03-02T00:54:35.328Z,31.62
2018-03-02T00:57:02.721Z,31.94
2018-03-02T00:59:30.110Z,32.15
2018-03-02T01:01:57.585Z,32.38
2018-03-02T01:04:25.131Z,32.43
2018-03-02T01:06:52.512Z,32.68
2018-03-02T01:09:19.899Z,32.65
2018-03-02T01:11:47.293Z,32.27
2018-03-02T01:14:14.690Z,32.61
2018-03-02T01:16:42.085Z,32.55
2018-03-02T01:19:10.383Z,32.70
2018-03-02T01:21:37.777Z,32.94
2018-03-02T01:24:05.213Z,32.92
2018-03-02T01:26:32.609Z,33.29
2018-03-02T01:29:00.012Z,33.00
2018-03-02T01:31:27.497Z,32.51
2018-03-02T01:33:54.906Z,33.02
2018-03-02T01:36:22.340Z,32.78
2018-03-02T01:38:49.741Z,33.63
2018-03-02T01:41:17.122Z,33.36
2018-03-02T01:43:44.521Z,33.51
2018-03-02T01:46:11.933Z,33.68
2018-03-02T01:48:39.325Z,33.38
2018-03-02T01:51:06.779Z,33.26
2018-03-02T01:53:34.192Z,33.29
2018-03-02T01:56:01.566Z,33.52
2018-03-02T01:58:28.968Z,33.84
2018-03-02T02:00:56.448Z,34.10
2018-03-02T02:03:23.833Z,33.93
2018-03-02T02:05:51.242Z,33.64
2018-03-02T02:08:18.804Z,33.46
2018-03-02T02:10:46.181Z,33.62
2018-03-02T02:13:13.568Z,33.59
2018-03-02T02:15:40.992Z,33.64
2018-03-02T02:18:08.372Z,34.08
2018-03-02T02:20:36.024Z,34.48
2018-03-02T02:23:03.477Z,34.04
2018-03-02T02:25:30.924Z,34.12
2018-03-02T02:27:58.310Z,34.00
2018-03-02T02:30:25.697Z,33.77
2018-03-02T02:32:53.104Z,34.23
2018-03-02T02:35:20.559Z,34.19
2018-03-02T02:37:47.946Z,33.98
2018-03-02T02:40:15.383Z,34.33
2018-03-02T02:42:42.839Z,34.32
2018-03-02T02:45:10.754Z,34.24
2018-03-02T02:47:38.149Z,34.04
2018-03-02T02:50:05.532Z,34.15
2018-03-02T02:52:32.918Z,34.44
2018-03-02T02:55:00.325Z,34.55
2018-03-02T02:57:27.903Z,34.40
2018-03-02T02:59:55.548Z,34.85
2018-03-02T03:02:22.945Z,37.42
2018-03-02T03:04:50.395Z,35.79
2018-03-02T03:07:17.845Z,35.18
2018-03-02T03:09:45.232Z,34.84
2018-03-02T03:12:12.689Z,34.74
2018-03-02T03:14:41.545Z,34.61
2018-03-02T03:17:09.826Z,34.65
2018-03-02T03:19:37.221Z,34.66
2018-03-02T03:22:04.609Z,34.97
2018-03-02T03:24:32.002Z,35.08
2018-03-02T03:26:59.384Z,34.62
2018-03-02T03:29:26.829Z,35.55
2018-03-02T03:31:54.216Z,35.49
2018-03-02T03:34:21.687Z,35.38
2018-03-02T03:36:49.089Z,34.94
2018-03-02T03:39:16.528Z,35.12
2018-03-02T03:41:43.928Z,34.89
2018-03-02T03:44:11.322Z,35.01
2018-03-02T03:46:38.711Z,35.28
2018-03-02T03:49:06.120Z,35.76
2018-03-02T03:51:33.881Z,35.93
2018-03-02T03:54:01.381Z,35.22
2018-03-02T03:56:28.791Z,35.23
2018-03-02T03:58:56.180Z,35.42
2018-03-02T04:01:23.591Z,35.09
2018-03-02T04:03:50.977Z,35.11
2018-03-02T04:06:18.443Z,34.87
2018-03-02T04:08:45.863Z,35.60
2018-03-02T04:11:13.232Z,35.20
2018-03-02T04:13:41.342Z,35.28
2018-03-02T04:16:08.716Z,35.41
2018-03-02T04:18:36.180Z,35.22
2018-03-02T04:21:03.552Z,35.15
2018-03-02T04:23:30.966Z,35.87
2018-03-02T04:25:58.333Z,36.36
2018-03-02T04:28:25.742Z,36.11
2018-03-02T04:30:53.180Z,36.21
2018-03-02T04:33:20.573Z,36.01
2018-03-02T04:35:47.964Z,36.04
2018-03-02T04:38:15.345Z,35.56
2018-03-02T04:40:42.734Z,35.59
2018-03-02T04:43:10.137Z,35.39
2018-03-02T04:45:37.570Z,35.75
2018-03-02T04:48:04.924Z,35.75
2018-03-02T04:50:32.337Z,35.58
2018-03-02T04:52:59.750Z,35.54
2018-03-02T04:55:27.117Z,36.21
2018-03-02T04:57:54.517Z,36.40
2018-03-02T05:00:22.000Z,36.06
2018-03-02T05:02:49.397Z,35.82
2018-03-02T05:05:16.788Z,36.33
2018-03-02T05:07:44.181Z,36.27
2018-03-02T05:10:11.611Z,36.47
2018-03-02T05:12:38.992Z,36.35
2018-03-02T05:15:06.390Z,36.81
2018-03-02T05:17:33.774Z,36.98
2018-03-02T05:20:01.205Z,36.88
2018-03-02T05:22:28.595Z,36.88
2018-03-02T05:24:55.993Z,37.00
2018-03-02T05:27:23.360Z,36.49
2018-03-02T05:29:50.753Z,36.67
2018-03-02T05:32:18.215Z,36.96
2018-03-02T05:34:45.634Z,36.49
2018-03-02T05:37:13.032Z,36.64
2018-03-02T05:39:40.416Z,36.49
2018-03-02T05:42:07.824Z,37.02
2018-03-02T05:44:35.680Z,37.13
2018-03-02T05:47:03.095Z,36.97
2018-03-02T05:49:30.790Z,36.75
2018-03-02T05:51:58.223Z,36.96
2018-03-02T05:54:25.819Z,37.39
2018-03-02T05:56:53.234Z,36.87
2018-03-02T05:59:20.759Z,36.97
2018-03-02T06:01:48.393Z,36.78
2018-03-02T06:04:16.998Z,36.76
2018-03-02T06:06:44.745Z,37.25
2018-03-02T06:09:12.453Z,36.68
2018-03-02T06:11:40.695Z,36.62
2018-03-02T06:14:09.086Z,37.00
2018-03-02T06:16:37.134Z,37.36
2018-03-02T06:19:05.153Z,37.86
2018-03-02T06:21:32.833Z,37.53
2018-03-02T06:24:01.005Z,37.38
2018-03-02T06:26:29.823Z,37.48
2018-03-02T06:28:57.279Z,37.65
2018-03-02T06:31:24.769Z,37.66
2018-03-02T06:33:52.251Z,37.82
2018-03-02T06:36:19.699Z,38.08
2018-03-02T06:38:47.093Z,38.40
2018-03-02T06:41:14.958Z,38.20
2018-03-02T06:43:42.388Z,37.64
2018-03-02T06:46:09.857Z,37.56
2018-03-02T06:48:37.478Z,37.34
2018-03-02T06:51:05.070Z,37.30
2018-03-02T06:53:32.733Z,37.02
2018-03-02T06:56:01.150Z,37.14
2018-03-02T06:58:28.557Z,37.27
2018-03-02T07:00:56.044Z,36.81
2018-03-02T07:03:23.647Z,37.02
2018-03-02T07:05:51.086Z,36.77
2018-03-02T07:08:18.463Z,37.42
2018-03-02T07:10:45.856Z,37.18
2018-03-02T07:13:13.310Z,37.37
2018-03-02T07:15:40.862Z,36.74
2018-03-02T07:18:08.261Z,37.10
2018-03-02T07:20:35.883Z,37.52
2018-03-02T07:23:03.414Z,37.00
2018-03-02T07:25:30.891Z,37.00
2018-03-02T07:27:58.395Z,37.10
2018-03-02T07:30:25.784Z,37.22
2018-03-02T07:32:53.191Z,37.76
2018-03-02T07:35:20.623Z,37.40
2018-03-02T07:37:48.070Z,36.95
2018-03-02T07:40:15.623Z,37.26
2018-03-02T07:42:43.106Z,36.81
2018-03-02T07:45:10.501Z,36.20
2018-03-02T07:47:37.884Z,36.33
2018-03-02T07:50:05.396Z,36.37
2018-03-02T07:52:32.824Z,36.48
2018-03-02T07:55:00.221Z,36.50
2018-03-02T07:57:27.655Z,36.46
2018-03-02T07:59:55.010Z,36.23
2018-03-02T08:02:22.599Z,36.13
2018-03-02T08:04:50.013Z,36.25
2018-03-02T08:07:17.481Z,36.66
2018-03-02T08:09:44.894Z,36.32
2018-03-02T08:12:12.317Z,36.79
2018-03-02T08:14:39.707Z,36.47
2018-03-02T08:17:07.093Z,36.02
2018-03-02T08:19:35.902Z,36.29
2018-03-02T08:22:03.409Z,35.85
2018-03-02T08:24:30.919Z,36.21
2018-03-02T08:26:58.321Z,36.38
2018-03-02T08:29:25.730Z,36.82
2018-03-02T08:31:53.481Z,36.57
2018-03-02T08:34:20.930Z,36.60
2018-03-02T08:36:48.336Z,36.52
2018-03-02T08:39:15.721Z,36.74
2018-03-02T08:41:43.304Z,36.69
2018-03-02T08:44:10.682Z,35.74
2018-03-02T08:46:38.256Z,36.04
2018-03-02T08:49:05.623Z,35.87
2018-03-02T08:51:33.028Z,35.98
2018-03-02T08:54:00.407Z,35.73
2018-03-02T08:56:27.798Z,35.79
2018-03-02T08:58:55.180Z,35.55
2018-03-02T09:01:22.625Z,35.79
2018-03-02T09:03:50.026Z,35.59
2018-03-02T09:06:17.557Z,35.71
2018-03-02T09:08:44.892Z,35.63
2018-03-02T09:11:16.496Z,35.28
2018-03-02T09:13:43.968Z,35.14
2018-03-02T09:16:11.540Z,34.93
2018-03-02T09:18:39.036Z,35.02
2018-03-02T09:21:06.429Z,35.40
2018-03-02T09:23:33.811Z,35.47
2018-03-02T09:26:01.209Z,35.26
2018-03-02T09:28:28.668Z,35.57
2018-03-02T09:30:56.058Z,35.50
2018-03-02T09:33:23.440Z,35.70
2018-03-02T09:35:50.881Z,35.69
2018-03-02T09:38:18.272Z,35.84
2018-03-02T09:40:45.725Z,35.48
2018-03-02T09:43:13.140Z,35.40
2018-03-02T09:45:40.605Z,35.56
2018-03-02T09:48:07.978Z,35.56
2018-03-02T09:50:35.808Z,36.17
2018-03-02T09:53:03.262Z,35.46
2018-03-02T09:55:30.654Z,35.48
2018-03-02T09:57:58.028Z,35.60
2018-03-02T10:00:25.449Z,34.97
2018-03-02T10:02:52.852Z,34.69
2018-03-02T10:05:20.240Z,34.85
2018-03-02T10:07:47.677Z,34.72
2018-03-02T10:10:15.106Z,34.58
2018-03-02T10:12:42.923Z,34.06
2018-03-02T10:15:10.336Z,34.69
2018-03-02T10:17:37.719Z,34.89
2018-03-02T10:20:05.093Z,35.28
2018-03-02T10:22:32.496Z,34.93
2018-03-02T10:25:00.033Z,34.78
2018-03-02T10:27:27.416Z,34.65
2018-03-02T10:29:54.807Z,34.45
2018-03-02T10:32:22.369Z,34.19
2018-03-02T10:34:49.992Z,34.44
2018-03-02T10:37:17.404Z,34.27
2018-03-02T10:39:44.839Z,33.77
2018-03-02T10:42:12.986Z,34.19
2018-03-02T10:44:40.408Z,34.54
2018-03-02T10:47:07.797Z,34.20
2018-03-02T10:49:35.201Z,34.13
2018-03-02T10:52:02.608Z,34.09
2018-03-02T10:54:29.995Z,34.34
2018-03-02T10:56:57.392Z,34.15
2018-03-02T10:59:24.877Z,34.13
2018-03-02T11:01:54.204Z,33.90
2018-03-02T11:04:21.573Z,34.20
2018-03-02T11:06:48.965Z,33.74
2018-03-02T11:09:16.372Z,34.26
2018-03-02T11:11:43.852Z,33.96
2018-03-02T11:14:11.257Z,34.13
2018-03-02T11:16:38.641Z,34.40
2018-03-02T11:19:06.609Z,33.96
2018-03-02T11:21:34.055Z,33.55
2018-03-02T11:24:01.424Z,33.37
2018-03-02T11:26:28.821Z,33.19
2018-03-02T11:28:56.206Z,32.97
2018-03-02T11:31:23.624Z,33.02
2018-03-02T11:33:51.049Z,32.83
2018-03-02T11:36:18.460Z,32.85
2018-03-02T11:38:45.939Z,32.86
2018-03-02T11:41:13.324Z,33.16
2018-03-02T11:43:40.729Z,32.97
2018-03-02T11:46:08.109Z,32.84
2018-03-02T11:48:35.508Z,32.88
2018-03-02T11:51:02.889Z,32.60
2018-03-02T11:53:30.282Z,32.57
2018-03-02T11:55:57.680Z,32.14
2018-03-02T11:58:25.087Z,32.09
2018-03-02T12:00:52.531Z,31.83
2018-03-02T12:03:19.972Z,32.30
2018-03-02T12:05:51.338Z,32.63
2018-03-02T12:08:18.793Z,31.75
2018-03-02T12:10:46.245Z,31.85
2018-03-02T12:13:14.488Z,32.14
2018-03-02T12:15:43.241Z,31.95
2018-03-02T12:18:10.933Z,32.69
2018-03-02T12:20:38.680Z,32.16
2018-03-02T12:23:06.079Z,32.80
2018-03-02T12:25:33.485Z,32.50
2018-03-02T12:28:00.869Z,32.20
2018-03-02T12:30:28.264Z,32.31
2018-03-02T12:32:55.646Z,32.00
2018-03-02T12:35:23.068Z,31.98
2018-03-02T12:37:50.445Z,31.80
2018-03-02T12:40:17.919Z,31.71
2018-03-02T12:42:45.329Z,32.05
2018-03-02T12:45:13.430Z,32.00
2018-03-02T12:47:41.125Z,32.01
2018-03-02T12:50:08.509Z,32.09
2018-03-02T12:52:35.887Z,31.80
2018-03-02T12:55:03.414Z,31.74
2018-03-02T12:57:30.825Z,32.24
2018-03-02T12:59:58.200Z,32.27
2018-03-02T13:02:25.609Z,31.97
2018-03-02T13:04:53.033Z,31.96
2018-03-02T13:07:20.424Z,32.07
2018-03-02T13:09:47.916Z,32.03
2018-03-02T13:12:15.344Z,32.16
2018-03-02T13:14:42.706Z,32.11
2018-03-02T13:17:10.102Z,32.23
2018-03-02T13:19:37.499Z,32.26
2018-03-02T13:22:04.892Z,32.08
2018-03-02T13:24:32.281Z,32.40
2018-03-02T13:27:11.356Z,32.47
2018-03-02T13:29:38.757Z,32.25
2018-03-02T13:32:06.172Z,32.16
2018-03-02T13:34:45.367Z,32.04
2018-03-02T13:37:13.677Z,32.10
2018-03-02T13:39:52.927Z,32.47
2018-03-02T13:42:20.321Z,32.59
2018-03-02T13:44:47.757Z,32.67
2018-03-02T13:47:15.127Z,32.56
2018-03-02T13:49:54.218Z,32.17
2018-03-02T13:52:21.614Z,32.16
2018-03-02T13:54:49.065Z,31.93
2018-03-02T13:57:28.493Z,31.66
2018-03-02T13:59:55.866Z,31.47
2018-03-02T14:02:35.108Z,31.58
2018-03-02T14:05:02.527Z,31.79
2018-03-02T14:07:30.003Z,31.79
2018-03-02T14:09:57.384Z,31.94
2018-03-02T14:12:24.797Z,31.74
2018-03-02T14:14:52.200Z,32.07
2018-03-02T14:17:19.585Z,31.64
2018-03-02T14:19:46.982Z,31.80
2018-03-02T14:22:14.401Z,31.93
2018-03-02T14:24:42.583Z,31.89
2018-03-02T14:27:09.992Z,31.79
2018-03-02T14:29:37.372Z,31.22
2018-03-02T14:32:04.790Z,31.50
2018-03-02T14:34:32.178Z,31.70
2018-03-02T14:36:59.564Z,31.20
2018-03-02T14:39:26.997Z,31.07
2018-03-02T14:41:54.376Z,31.36
2018-03-02T14:44:21.876Z,31.54
2018-03-02T14:46:49.270Z,31.90
2018-03-02T14:49:16.663Z,31.77
2018-03-02T14:51:44.103Z,32.13
2018-03-02T14:54:11.491Z,31.79
2018-03-02T14:56:38.885Z,31.78
2018-03-02T14:59:06.272Z,32.02
2018-03-02T15:01:33.661Z,32.49
2018-03-02T15:04:01.060Z,32.48
2018-03-02T15:06:28.689Z,32.63
2018-03-02T15:08:56.165Z,32.25
2018-03-02T15:11:23.529Z,31.86
2018-03-02T15:13:50.928Z,32.54
2018-03-02T15:16:18.335Z,32.10
2018-03-02T15:18:45.736Z,31.93
2018-03-02T15:21:14.169Z,31.84
2018-03-02T15:23:41.566Z,31.96
2018-03-02T15:26:10.016Z,32.37
2018-03-02T15:28:37.400Z,32.26
2018-03-02T15:31:04.808Z,32.25
2018-03-02T15:33:32.494Z,32.20
2018-03-02T15:35:59.880Z,32.08
2018-03-02T15:38:27.504Z,32.38
2018-03-02T15:40:54.895Z,32.59
2018-03-02T15:43:22.422Z,32.94
2018-03-02T15:45:49.853Z,32.63
2018-03-02T15:48:17.394Z,32.89
2018-03-02T15:50:44.813Z,32.68
2018-03-02T15:53:12.197Z,32.81
2018-03-02T15:55:39.612Z,33.25
2018-03-02T15:58:07.029Z,33.37
2018-03-02T16:00:34.415Z,33.25
2018-03-02T16:03:01.887Z,33.34
2018-03-02T16:05:29.267Z,32.91
2018-03-02T16:07:56.645Z,32.88
2018-03-02T16:10:24.039Z,32.93
2018-03-02T16:12:51.450Z,32.99
2018-03-02T16:15:18.885Z,33.18
2018-03-02T16:17:46.264Z,33.18
2018-03-02T16:20:14.481Z,32.84
2018-03-02T16:22:41.899Z,33.32
2018-03-02T16:25:09.319Z,33.11
2018-03-02T16:27:36.735Z,33.88
2018-03-02T16:30:04.172Z,34.08
2018-03-02T16:32:31.594Z,33.53
2018-03-02T16:34:59.002Z,33.91
2018-03-02T16:37:26.402Z,33.82
2018-03-02T16:39:53.795Z,33.98
2018-03-02T16:42:21.196Z,33.91
2018-03-02T16:44:48.634Z,34.08
2018-03-02T16:47:15.999Z,34.33
2018-03-02T16:49:43.759Z,34.24
2018-03-02T16:52:11.143Z,33.40
2018-03-02T16:54:38.537Z,33.51
2018-03-02T16:57:05.917Z,33.34
2018-03-02T16:59:33.388Z,33.46
2018-03-02T17:02:00.782Z,33.40
2018-03-02T17:04:28.230Z,33.71
2018-03-02T17:06:55.628Z,33.64
2018-03-02T17:09:23.188Z,33.71
2018-03-02T17:11:50.686Z,33.51
2018-03-02T17:14:18.167Z,33.35
2018-03-02T17:16:45.552Z,33.43
2018-03-02T17:19:12.928Z,33.57
2018-03-02T17:21:40.356Z,33.48
2018-03-02T17:24:07.739Z,33.63
2018-03-02T17:26:35.262Z,33.69
2018-03-02T17:29:02.650Z,33.85
2018-03-02T17:31:30.057Z,34.08
2018-03-02T17:33:57.439Z,33.94
2018-03-02T17:36:24.830Z,33.55
2018-03-02T17:38:52.231Z,33.92
2018-03-02T17:41:19.625Z,34.11
2018-03-02T17:43:47.049Z,33.69
2018-03-02T17:46:14.473Z,33.58
2018-03-02T17:48:41.893Z,33.99
2018-03-02T17:51:09.347Z,33.73
2018-03-02T17:53:36.753Z,34.29
2018-03-02T17:56:04.509Z,34.19
2018-03-02T17:58:31.904Z,33.92
2018-03-02T18:00:59.293Z,33.62
2018-03-02T18:03:26.709Z,33.78
2018-03-02T18:05:54.090Z,33.81
2018-03-02T18:08:21.492Z,34.13
2018-03-02T18:10:48.890Z,33.84
2018-03-02T18:13:16.284Z,33.67
2018-03-02T18:15:43.772Z,33.95
2018-03-02T18:18:11.151Z,34.28
2018-03-02T18:20:39.056Z,34.39
2018-03-02T18:23:06.442Z,34.11
2018-03-02T18:25:33.851Z,34.49
2018-03-02T18:28:01.437Z,34.03
2018-03-02T18:30:28.858Z,34.60
2018-03-02T18:32:56.269Z,34.69
2018-03-02T18:35:23.715Z,34.69
2018-03-02T18:37:51.155Z,34.65
2018-03-02T18:40:18.549Z,34.87
2018-03-02T18:42:48.989Z,34.80
2018-03-02T18:45:16.374Z,35.15
2018-03-02T18:47:43.868Z,35.80
2018-03-02T18:50:11.279Z,35.16
2018-03-02T18:52:38.809Z,35.49
2018-03-02T18:55:06.176Z,35.43
2018-03-02T18:57:33.569Z,38.56
2018-03-02T19:00:00.980Z,41.26
2018-03-02T19:02:28.413Z,43.98
2018-03-02T19:04:55.816Z,46.12
2018-03-02T19:07:23.416Z,47.43
2018-03-02T19:09:50.796Z,47.77
2018-03-02T19:12:18.216Z,47.34
2018-03-02T19:14:45.604Z,47.23
2018-03-02T19:17:12.996Z,47.74
2018-03-02T19:19:40.389Z,45.82
2018-03-02T19:22:07.787Z,46.77
2018-03-02T19:24:35.174Z,46.50
2018-03-02T19:27:02.651Z,47.81
2018-03-02T19:29:30.045Z,47.58
2018-03-02T19:31:57.461Z,47.03
2018-03-02T19:34:25.049Z,46.31
2018-03-02T19:36:52.442Z,48.47
2018-03-02T19:39:20.250Z,48.42
2018-03-02T19:41:48.099Z,49.68
2018-03-02T19:44:15.496Z,49.89
2018-03-02T19:46:42.892Z,51.16
2018-03-02T19:49:10.988Z,51.86
2018-03-02T19:51:38.442Z,52.23
2018-03-02T19:54:05.804Z,55.36
2018-03-02T19:56:34.085Z,58.16
2018-03-02T19:59:01.479Z,57.12
2018-03-02T20:01:28.892Z,60.55
2018-03-02T20:03:56.275Z,61.90
2018-03-02T20:06:23.708Z,64.04
2018-03-02T20:08:51.104Z,64.24
2018-03-02T20:11:19.301Z,67.96
2018-03-02T20:13:46.675Z,69.86
2018-03-02T20:16:14.176Z,66.55
2018-03-02T20:18:41.735Z,62.96
2018-03-02T20:21:09.137Z,66.17
2018-03-02T20:23:36.540Z,65.22
2018-03-02T20:26:03.977Z,67.00
2018-03-02T20:28:31.473Z,66.45
2018-03-02T20:30:58.851Z,64.77
2018-03-02T20:33:26.289Z,65.21
2018-03-02T20:35:53.695Z,65.29
2018-03-02T20:38:21.093Z,64.71
2018-03-02T20:40:48.543Z,65.89
2018-03-02T20:43:15.975Z,64.27
2018-03-02T20:45:43.375Z,63.05
2018-03-02T20:48:10.777Z,62.30
2018-03-02T20:50:38.255Z,63.23
2018-03-02T20:53:05.837Z,64.59
2018-03-02T20:55:33.260Z,65.83
2018-03-02T20:58:00.905Z,66.24
2018-03-02T21:00:28.311Z,65.21
2018-03-02T21:02:55.748Z,65.22
2018-03-02T21:05:23.166Z,64.40
2018-03-02T21:07:50.608Z,63.07
2018-03-02T21:10:18.024Z,61.11
2018-03-02T21:12:45.775Z,63.20
2018-03-02T21:15:13.154Z,62.41
2018-03-02T21:17:40.535Z,61.75
2018-03-02T21:20:08.052Z,62.18
2018-03-02T21:22:35.475Z,61.06
2018-03-02T21:25:02.958Z,60.37
2018-03-02T21:27:30.414Z,62.11
2018-03-02T21:29:57.787Z,62.08
2018-03-02T21:32:25.356Z,61.38
2018-03-02T21:34:52.776Z,61.20
2018-03-02T21:37:20.465Z,60.49
2018-03-02T21:39:47.857Z,61.41
2018-03-02T21:42:15.858Z,60.83
2018-03-02T21:44:43.279Z,61.33
2018-03-02T21:47:10.657Z,60.51
2018-03-02T21:49:38.076Z,61.40
2018-03-02T21:52:05.618Z,62.35
2018-03-02T21:54:33.008Z,62.30
2018-03-02T21:57:00.460Z,61.00
2018-03-02T21:59:27.860Z,61.38
2018-03-02T22:01:55.240Z,61.37
2018-03-02T22:04:22.637Z,63.65
2018-03-02T22:06:50.027Z,61.98
2018-03-02T22:09:17.584Z,62.59
2018-03-02T22:11:44.987Z,64.12
2018-03-02T22:14:12.357Z,63.81
2018-03-02T22:16:39.748Z,64.30
2018-03-02T22:19:07.132Z,63.94
2018-03-02T22:21:34.527Z,64.35
2018-03-02T22:24:01.986Z,64.36
2018-03-02T22:26:33.910Z,63.38
2018-03-02T22:29:04.062Z,63.39
2018-03-02T22:31:32.704Z,63.69
2018-03-02T22:34:00.089Z,63.91
2018-03-02T22:36:27.634Z,62.56
2018-03-02T22:38:55.018Z,65.69
2018-03-02T22:41:22.400Z,63.10
2018-03-02T22:43:49.789Z,62.81
2018-03-02T22:46:17.177Z,62.00
2018-03-02T22:48:45.227Z,62.17
2018-03-02T22:51:12.608Z,60.72
2018-03-02T22:53:40.063Z,61.76
2018-03-02T22:56:07.493Z,61.48
2018-03-02T22:58:34.876Z,62.43
2018-03-02T23:01:02.647Z,62.94
2018-03-02T23:03:30.067Z,62.05
2018-03-02T23:05:57.641Z,61.91
2018-03-02T23:08:25.058Z,61.75
2018-03-02T23:10:52.451Z,63.10
2018-03-02T23:13:19.872Z,61.71
2018-03-02T23:15:47.655Z,62.14
2018-03-02T23:18:15.070Z,61.89
2018-03-02T23:20:42.526Z,63.05
2018-03-02T23:23:09.949Z,62.61
2018-03-02T23:25:37.320Z,61.79
2018-03-02T23:28:06.024Z,62.26
2018-03-02T23:30:33.420Z,61.64
2018-03-02T23:33:00.953Z,61.93
2018-03-02T23:35:28.409Z,61.82
2018-03-02T23:37:55.788Z,62.92
2018-03-02T23:40:23.168Z,63.06
2018-03-02T23:42:50.722Z,61.67
2018-03-02T23:45:18.108Z,62.33
2018-03-02T23:47:45.740Z,62.66
2018-03-02T23:50:13.127Z,61.20
2018-03-02T23:52:41.066Z,62.78
2018-03-02T23:55:08.462Z,61.44
2018-03-02T23:57:35.844Z,62.71
